sensor_id;sensor_type;location;lat;lon;timestamp;P1;durP1;ratioP1;P2;durP2;ratioP2
39888;SDS011;25563;50.844;4.308;2022-12-18T00:01:02;46.53;;;23.42;;
39888;SDS011;25563;50.844;4.308;2022-12-18T00:03:34;48.92;;;23.63;;
39888;SDS011;25563;50.844;4.308;2022-12-18T00:06:00;50.42;;;23.83;;
39888;SDS011;25563;50.844;4.308;2022-12-18T00:08:26;51.28;;;25.17;;
39888;SDS011;25563;50.844;4.308;2022-12-18T00:10:52;50.65;;;24.02;;
39888;SDS011;25563;50.844;4.308;2022-12-18T00:13:20;47.80;;;24.08;;
39888;SDS011;25563;50.844;4.308;2022-12-18T00:15:45;52.88;;;24.50;;
39888;SDS011;25563;50.844;4.308;2022-12-18T00:18:11;45.78;;;22.90;;
39888;SDS011;25563;50.844;4.308;2022-12-18T00:20:37;43.67;;;23.25;;
39888;SDS011;25563;50.844;4.308;2022-12-18T00:23:04;56.45;;;23.73;;
39888;SDS011;25563;50.844;4.308;2022-12-18T00:25:34;52.22;;;23.60;;
39888;SDS011;25563;50.844;4.308;2022-12-18T00:30:27;58.63;;;26.17;;
39888;SDS011;25563;50.844;4.308;2022-12-18T00:32:53;60.47;;;26.33;;
39888;SDS011;25563;50.844;4.308;2022-12-18T00:35:18;49.10;;;22.70;;
39888;SDS011;25563;50.844;4.308;2022-12-18T00:37:47;34.20;;;18.40;;
39888;SDS011;25563;50.844;4.308;2022-12-18T00:40:13;43.10;;;19.77;;
39888;SDS011;25563;50.844;4.308;2022-12-18T00:42:39;38.95;;;19.08;;
39888;SDS011;25563;50.844;4.308;2022-12-18T00:45:26;38.58;;;19.73;;
39888;SDS011;25563;50.844;4.308;2022-12-18T00:47:55;36.65;;;19.35;;
39888;SDS011;25563;50.844;4.308;2022-12-18T00:50:21;37.42;;;18.73;;
39888;SDS011;25563;50.844;4.308;2022-12-18T00:52:49;41.65;;;19.65;;
39888;SDS011;25563;50.844;4.308;2022-12-18T00:55:15;31.92;;;18.17;;
39888;SDS011;25563;50.844;4.308;2022-12-18T00:57:41;39.15;;;19.92;;
39888;SDS011;25563;50.844;4.308;2022-12-18T01:00:08;43.20;;;20.35;;
39888;SDS011;25563;50.844;4.308;2022-12-18T01:02:36;35.30;;;19.27;;
39888;SDS011;25563;50.844;4.308;2022-12-18T01:05:02;36.80;;;19.13;;
39888;SDS011;25563;50.844;4.308;2022-12-18T01:07:28;33.53;;;18.17;;
39888;SDS011;25563;50.844;4.308;2022-12-18T01:09:54;31.27;;;16.77;;
39888;SDS011;25563;50.844;4.308;2022-12-18T01:12:20;31.90;;;16.60;;
39888;SDS011;25563;50.844;4.308;2022-12-18T01:14:46;28.45;;;15.75;;
39888;SDS011;25563;50.844;4.308;2022-12-18T01:17:11;26.20;;;16.27;;
39888;SDS011;25563;50.844;4.308;2022-12-18T01:19:38;22.20;;;14.63;;
39888;SDS011;25563;50.844;4.308;2022-12-18T01:22:03;27.00;;;14.40;;
39888;SDS011;25563;50.844;4.308;2022-12-18T01:24:29;24.50;;;14.70;;
39888;SDS011;25563;50.844;4.308;2022-12-18T01:26:55;22.92;;;14.13;;
39888;SDS011;25563;50.844;4.308;2022-12-18T01:29:22;25.65;;;15.15;;
39888;SDS011;25563;50.844;4.308;2022-12-18T01:31:49;32.20;;;15.68;;
39888;SDS011;25563;50.844;4.308;2022-12-18T01:34:15;27.92;;;15.05;;
39888;SDS011;25563;50.844;4.308;2022-12-18T01:36:41;24.17;;;14.20;;
39888;SDS011;25563;50.844;4.308;2022-12-18T01:39:10;29.63;;;15.10;;
39888;SDS011;25563;50.844;4.308;2022-12-18T01:41:38;25.02;;;14.10;;
39888;SDS011;25563;50.844;4.308;2022-12-18T01:50:02;26.00;;;15.45;;
39888;SDS011;25563;50.844;4.308;2022-12-18T01:52:33;32.65;;;15.88;;
39888;SDS011;25563;50.844;4.308;2022-12-18T01:55:02;24.38;;;15.82;;
39888;SDS011;25563;50.844;4.308;2022-12-18T01:57:29;34.83;;;19.00;;
39888;SDS011;25563;50.844;4.308;2022-12-18T01:59:59;36.72;;;19.05;;
39888;SDS011;25563;50.844;4.308;2022-12-18T02:02:26;39.58;;;19.45;;
39888;SDS011;25563;50.844;4.308;2022-12-18T02:04:53;37.33;;;18.45;;
39888;SDS011;25563;50.844;4.308;2022-12-18T02:10:46;40.42;;;20.45;;
39888;SDS011;25563;50.844;4.308;2022-12-18T02:12:55;37.47;;;18.05;;
39888;SDS011;25563;50.844;4.308;2022-12-18T02:15:49;38.05;;;20.33;;
39888;SDS011;25563;50.844;4.308;2022-12-18T02:18:21;39.25;;;20.85;;
39888;SDS011;25563;50.844;4.308;2022-12-18T02:20:55;42.75;;;19.70;;
39888;SDS011;25563;50.844;4.308;2022-12-18T02:26:15;41.13;;;20.30;;
39888;SDS011;25563;50.844;4.308;2022-12-18T02:31:25;36.58;;;18.45;;
39888;SDS011;25563;50.844;4.308;2022-12-18T02:33:53;31.02;;;15.52;;
39888;SDS011;25563;50.844;4.308;2022-12-18T02:36:22;32.13;;;17.27;;
39888;SDS011;25563;50.844;4.308;2022-12-18T02:38:50;34.90;;;17.75;;
39888;SDS011;25563;50.844;4.308;2022-12-18T02:41:18;35.03;;;18.23;;
39888;SDS011;25563;50.844;4.308;2022-12-18T02:43:48;30.15;;;15.93;;
39888;SDS011;25563;50.844;4.308;2022-12-18T02:49:44;22.38;;;13.65;;
39888;SDS011;25563;50.844;4.308;2022-12-18T02:52:33;25.80;;;13.93;;
39888;SDS011;25563;50.844;4.308;2022-12-18T03:00:16;20.10;;;12.60;;
39888;SDS011;25563;50.844;4.308;2022-12-18T03:05:33;28.38;;;15.13;;
39888;SDS011;25563;50.844;4.308;2022-12-18T03:08:08;30.25;;;17.00;;
39888;SDS011;25563;50.844;4.308;2022-12-18T03:10:41;30.10;;;17.30;;
39888;SDS011;25563;50.844;4.308;2022-12-18T03:13:12;38.00;;;18.80;;
39888;SDS011;25563;50.844;4.308;2022-12-18T03:15:48;41.35;;;17.85;;
39888;SDS011;25563;50.844;4.308;2022-12-18T03:18:21;32.22;;;15.43;;
39888;SDS011;25563;50.844;4.308;2022-12-18T03:20:55;32.30;;;16.10;;
39888;SDS011;25563;50.844;4.308;2022-12-18T03:23:27;28.38;;;15.10;;
39888;SDS011;25563;50.844;4.308;2022-12-18T03:25:57;19.45;;;12.82;;
39888;SDS011;25563;50.844;4.308;2022-12-18T03:28:29;24.30;;;13.65;;
39888;SDS011;25563;50.844;4.308;2022-12-18T03:30:58;25.40;;;12.85;;
39888;SDS011;25563;50.844;4.308;2022-12-18T03:33:29;22.85;;;12.35;;
39888;SDS011;25563;50.844;4.308;2022-12-18T03:36:02;21.33;;;12.68;;
39888;SDS011;25563;50.844;4.308;2022-12-18T03:38:28;22.92;;;12.68;;
39888;SDS011;25563;50.844;4.308;2022-12-18T03:52:55;19.42;;;11.82;;
39888;SDS011;25563;50.844;4.308;2022-12-18T03:55:26;21.48;;;11.20;;
39888;SDS011;25563;50.844;4.308;2022-12-18T03:57:54;17.08;;;10.95;;
39888;SDS011;25563;50.844;4.308;2022-12-18T04:00:21;20.88;;;10.73;;
39888;SDS011;25563;50.844;4.308;2022-12-18T04:02:53;16.48;;;11.13;;
39888;SDS011;25563;50.844;4.308;2022-12-18T04:05:21;21.70;;;12.25;;
39888;SDS011;25563;50.844;4.308;2022-12-18T04:07:49;17.77;;;12.30;;
39888;SDS011;25563;50.844;4.308;2022-12-18T04:10:16;22.85;;;11.77;;
39888;SDS011;25563;50.844;4.308;2022-12-18T04:12:43;23.88;;;11.73;;
39888;SDS011;25563;50.844;4.308;2022-12-18T04:15:09;22.98;;;11.70;;
39888;SDS011;25563;50.844;4.308;2022-12-18T04:17:36;27.58;;;12.80;;
39888;SDS011;25563;50.844;4.308;2022-12-18T04:20:03;24.30;;;11.70;;
39888;SDS011;25563;50.844;4.308;2022-12-18T04:22:29;19.27;;;11.82;;
39888;SDS011;25563;50.844;4.308;2022-12-18T04:24:55;33.17;;;15.73;;
39888;SDS011;25563;50.844;4.308;2022-12-18T04:27:21;33.90;;;16.45;;
39888;SDS011;25563;50.844;4.308;2022-12-18T04:29:47;36.67;;;17.52;;
39888;SDS011;25563;50.844;4.308;2022-12-18T04:32:12;40.08;;;18.30;;
39888;SDS011;25563;50.844;4.308;2022-12-18T04:34:39;34.88;;;17.65;;
39888;SDS011;25563;50.844;4.308;2022-12-18T04:37:05;39.55;;;17.65;;
39888;SDS011;25563;50.844;4.308;2022-12-18T04:39:30;37.10;;;17.67;;
39888;SDS011;25563;50.844;4.308;2022-12-18T04:41:57;36.15;;;18.10;;
39888;SDS011;25563;50.844;4.308;2022-12-18T04:44:25;43.65;;;18.70;;
39888;SDS011;25563;50.844;4.308;2022-12-18T04:46:51;45.40;;;19.90;;
39888;SDS011;25563;50.844;4.308;2022-12-18T04:49:17;33.65;;;18.17;;
39888;SDS011;25563;50.844;4.308;2022-12-18T04:51:42;39.78;;;18.13;;
39888;SDS011;25563;50.844;4.308;2022-12-18T04:54:09;34.75;;;16.85;;
39888;SDS011;25563;50.844;4.308;2022-12-18T04:56:35;39.85;;;19.17;;
39888;SDS011;25563;50.844;4.308;2022-12-18T04:59:00;44.28;;;19.08;;
39888;SDS011;25563;50.844;4.308;2022-12-18T05:01:26;40.42;;;18.23;;
39888;SDS011;25563;50.844;4.308;2022-12-18T05:03:52;33.38;;;17.90;;
39888;SDS011;25563;50.844;4.308;2022-12-18T05:06:18;32.25;;;17.88;;
39888;SDS011;25563;50.844;4.308;2022-12-18T05:08:43;35.60;;;17.38;;
39888;SDS011;25563;50.844;4.308;2022-12-18T05:11:10;28.95;;;15.68;;
39888;SDS011;25563;50.844;4.308;2022-12-18T05:13:39;30.83;;;16.13;;
39888;SDS011;25563;50.844;4.308;2022-12-18T05:16:05;35.70;;;17.88;;
39888;SDS011;25563;50.844;4.308;2022-12-18T05:18:31;36.70;;;16.60;;
39888;SDS011;25563;50.844;4.308;2022-12-18T05:20:57;36.70;;;17.70;;
39888;SDS011;25563;50.844;4.308;2022-12-18T05:23:23;40.42;;;19.25;;
39888;SDS011;25563;50.844;4.308;2022-12-18T05:25:56;48.83;;;19.70;;
39888;SDS011;25563;50.844;4.308;2022-12-18T05:28:25;42.15;;;18.00;;
39888;SDS011;25563;50.844;4.308;2022-12-18T05:30:52;41.30;;;19.63;;
39888;SDS011;25563;50.844;4.308;2022-12-18T05:33:20;40.15;;;19.73;;
39888;SDS011;25563;50.844;4.308;2022-12-18T05:35:53;41.60;;;19.90;;
39888;SDS011;25563;50.844;4.308;2022-12-18T05:38:20;41.63;;;18.60;;
39888;SDS011;25563;50.844;4.308;2022-12-18T05:40:47;47.33;;;17.85;;
39888;SDS011;25563;50.844;4.308;2022-12-18T05:43:14;38.30;;;18.77;;
39888;SDS011;25563;50.844;4.308;2022-12-18T05:45:41;36.13;;;18.92;;
39888;SDS011;25563;50.844;4.308;2022-12-18T05:48:07;34.10;;;17.85;;
39888;SDS011;25563;50.844;4.308;2022-12-18T05:50:34;36.97;;;17.45;;
39888;SDS011;25563;50.844;4.308;2022-12-18T05:53:04;33.85;;;17.02;;
39888;SDS011;25563;50.844;4.308;2022-12-18T05:55:34;34.47;;;17.08;;
39888;SDS011;25563;50.844;4.308;2022-12-18T05:58:01;33.22;;;15.43;;
39888;SDS011;25563;50.844;4.308;2022-12-18T06:00:27;31.50;;;15.80;;
39888;SDS011;25563;50.844;4.308;2022-12-18T06:02:53;30.77;;;14.25;;
39888;SDS011;25563;50.844;4.308;2022-12-18T06:05:19;29.58;;;15.48;;
39888;SDS011;25563;50.844;4.308;2022-12-18T06:07:45;34.55;;;17.75;;
39888;SDS011;25563;50.844;4.308;2022-12-18T06:10:10;28.52;;;14.68;;
39888;SDS011;25563;50.844;4.308;2022-12-18T06:12:37;37.15;;;15.07;;
39888;SDS011;25563;50.844;4.308;2022-12-18T06:15:03;24.52;;;14.65;;
39888;SDS011;25563;50.844;4.308;2022-12-18T06:17:30;23.40;;;13.30;;
39888;SDS011;25563;50.844;4.308;2022-12-18T06:19:56;20.42;;;11.90;;
39888;SDS011;25563;50.844;4.308;2022-12-18T06:22:22;22.92;;;12.23;;
39888;SDS011;25563;50.844;4.308;2022-12-18T06:24:49;19.55;;;11.77;;
39888;SDS011;25563;50.844;4.308;2022-12-18T06:27:15;15.50;;;10.75;;
39888;SDS011;25563;50.844;4.308;2022-12-18T06:29:41;16.65;;;10.63;;
39888;SDS011;25563;50.844;4.308;2022-12-18T06:32:06;22.02;;;11.23;;
39888;SDS011;25563;50.844;4.308;2022-12-18T06:34:32;22.02;;;10.65;;
39888;SDS011;25563;50.844;4.308;2022-12-18T06:36:58;17.13;;;9.82;;
39888;SDS011;25563;50.844;4.308;2022-12-18T06:39:24;15.88;;;9.95;;
39888;SDS011;25563;50.844;4.308;2022-12-18T06:41:52;15.07;;;9.88;;
39888;SDS011;25563;50.844;4.308;2022-12-18T06:44:18;16.38;;;10.30;;
39888;SDS011;25563;50.844;4.308;2022-12-18T06:46:44;16.08;;;10.98;;
39888;SDS011;25563;50.844;4.308;2022-12-18T06:49:09;21.00;;;10.60;;
39888;SDS011;25563;50.844;4.308;2022-12-18T06:51:35;12.27;;;8.90;;
39888;SDS011;25563;50.844;4.308;2022-12-18T06:54:02;13.15;;;9.57;;
39888;SDS011;25563;50.844;4.308;2022-12-18T06:56:27;14.57;;;9.60;;
39888;SDS011;25563;50.844;4.308;2022-12-18T06:58:53;15.30;;;9.48;;
39888;SDS011;25563;50.844;4.308;2022-12-18T07:01:19;14.73;;;9.63;;
39888;SDS011;25563;50.844;4.308;2022-12-18T07:03:46;13.60;;;9.25;;
39888;SDS011;25563;50.844;4.308;2022-12-18T07:06:16;12.70;;;9.02;;
39888;SDS011;25563;50.844;4.308;2022-12-18T07:08:44;14.20;;;9.27;;
39888;SDS011;25563;50.844;4.308;2022-12-18T07:11:11;15.50;;;9.88;;
39888;SDS011;25563;50.844;4.308;2022-12-18T07:13:37;9.73;;;8.73;;
39888;SDS011;25563;50.844;4.308;2022-12-18T07:16:07;16.27;;;9.88;;
39888;SDS011;25563;50.844;4.308;2022-12-18T07:18:35;12.45;;;9.43;;
39888;SDS011;25563;50.844;4.308;2022-12-18T07:21:08;13.05;;;8.50;;
39888;SDS011;25563;50.844;4.308;2022-12-18T07:23:35;15.95;;;9.57;;
39888;SDS011;25563;50.844;4.308;2022-12-18T07:26:02;11.20;;;8.95;;
39888;SDS011;25563;50.844;4.308;2022-12-18T07:28:29;12.52;;;8.98;;
39888;SDS011;25563;50.844;4.308;2022-12-18T07:30:55;13.73;;;8.90;;
39888;SDS011;25563;50.844;4.308;2022-12-18T07:33:21;15.90;;;9.40;;
39888;SDS011;25563;50.844;4.308;2022-12-18T07:35:49;12.00;;;9.15;;
39888;SDS011;25563;50.844;4.308;2022-12-18T07:38:15;17.80;;;9.63;;
39888;SDS011;25563;50.844;4.308;2022-12-18T07:40:41;19.27;;;9.60;;
39888;SDS011;25563;50.844;4.308;2022-12-18T07:43:07;16.95;;;10.20;;
39888;SDS011;25563;50.844;4.308;2022-12-18T07:45:33;17.88;;;9.85;;
39888;SDS011;25563;50.844;4.308;2022-12-18T07:47:59;21.80;;;9.77;;
39888;SDS011;25563;50.844;4.308;2022-12-18T07:50:24;13.60;;;9.40;;
39888;SDS011;25563;50.844;4.308;2022-12-18T07:52:50;13.65;;;9.77;;
39888;SDS011;25563;50.844;4.308;2022-12-18T07:55:16;13.95;;;9.05;;
39888;SDS011;25563;50.844;4.308;2022-12-18T07:57:41;12.02;;;9.63;;
39888;SDS011;25563;50.844;4.308;2022-12-18T08:00:08;13.68;;;9.82;;
39888;SDS011;25563;50.844;4.308;2022-12-18T08:02:37;14.77;;;8.88;;
39888;SDS011;25563;50.844;4.308;2022-12-18T08:05:03;13.48;;;8.75;;
39888;SDS011;25563;50.844;4.308;2022-12-18T08:07:38;10.70;;;9.00;;
39888;SDS011;25563;50.844;4.308;2022-12-18T08:10:04;15.50;;;8.55;;
39888;SDS011;25563;50.844;4.308;2022-12-18T08:15:02;12.98;;;9.07;;
39888;SDS011;25563;50.844;4.308;2022-12-18T08:17:30;13.75;;;8.20;;
39888;SDS011;25563;50.844;4.308;2022-12-18T08:19:56;15.85;;;8.93;;
39888;SDS011;25563;50.844;4.308;2022-12-18T08:22:22;11.18;;;8.23;;
39888;SDS011;25563;50.844;4.308;2022-12-18T08:24:50;11.80;;;8.30;;
39888;SDS011;25563;50.844;4.308;2022-12-18T08:27:15;11.45;;;8.40;;
39888;SDS011;25563;50.844;4.308;2022-12-18T08:29:41;12.45;;;9.68;;
39888;SDS011;25563;50.844;4.308;2022-12-18T08:32:08;11.68;;;9.27;;
39888;SDS011;25563;50.844;4.308;2022-12-18T08:34:34;9.93;;;8.85;;
39888;SDS011;25563;50.844;4.308;2022-12-18T08:36:59;12.70;;;9.32;;
39888;SDS011;25563;50.844;4.308;2022-12-18T08:39:26;11.07;;;8.75;;
39888;SDS011;25563;50.844;4.308;2022-12-18T08:41:53;9.63;;;8.63;;
39888;SDS011;25563;50.844;4.308;2022-12-18T08:44:48;11.02;;;8.80;;
39888;SDS011;25563;50.844;4.308;2022-12-18T08:47:13;10.88;;;8.88;;
39888;SDS011;25563;50.844;4.308;2022-12-18T08:49:39;11.50;;;8.30;;
39888;SDS011;25563;50.844;4.308;2022-12-18T08:52:06;15.02;;;9.55;;
39888;SDS011;25563;50.844;4.308;2022-12-18T08:54:31;15.18;;;9.82;;
39888;SDS011;25563;50.844;4.308;2022-12-18T08:56:57;10.32;;;9.20;;
39888;SDS011;25563;50.844;4.308;2022-12-18T08:59:23;10.18;;;8.93;;
39888;SDS011;25563;50.844;4.308;2022-12-18T09:01:49;16.05;;;10.20;;
39888;SDS011;25563;50.844;4.308;2022-12-18T09:04:15;12.77;;;8.98;;
39888;SDS011;25563;50.844;4.308;2022-12-18T09:06:41;13.07;;;10.75;;
39888;SDS011;25563;50.844;4.308;2022-12-18T09:09:06;15.95;;;11.35;;
39888;SDS011;25563;50.844;4.308;2022-12-18T09:11:32;11.18;;;9.82;;
39888;SDS011;25563;50.844;4.308;2022-12-18T09:13:59;11.45;;;9.35;;
39888;SDS011;25563;50.844;4.308;2022-12-18T09:16:26;10.63;;;9.52;;
39888;SDS011;25563;50.844;4.308;2022-12-18T09:18:54;18.25;;;10.88;;
39888;SDS011;25563;50.844;4.308;2022-12-18T09:21:25;11.93;;;9.07;;
39888;SDS011;25563;50.844;4.308;2022-12-18T09:23:53;11.30;;;9.65;;
39888;SDS011;25563;50.844;4.308;2022-12-18T09:26:20;13.85;;;9.65;;
39888;SDS011;25563;50.844;4.308;2022-12-18T09:28:46;12.25;;;10.18;;
39888;SDS011;25563;50.844;4.308;2022-12-18T09:31:12;15.48;;;10.55;;
39888;SDS011;25563;50.844;4.308;2022-12-18T09:33:40;13.13;;;10.32;;
39888;SDS011;25563;50.844;4.308;2022-12-18T09:36:06;13.75;;;10.82;;
39888;SDS011;25563;50.844;4.308;2022-12-18T09:38:34;15.68;;;11.35;;
39888;SDS011;25563;50.844;4.308;2022-12-18T09:41:02;21.52;;;12.55;;
39888;SDS011;25563;50.844;4.308;2022-12-18T09:43:41;13.18;;;10.32;;
39888;SDS011;25563;50.844;4.308;2022-12-18T09:46:22;13.13;;;10.82;;
39888;SDS011;25563;50.844;4.308;2022-12-18T09:48:52;17.80;;;13.02;;
39888;SDS011;25563;50.844;4.308;2022-12-18T09:51:24;15.90;;;11.98;;
39888;SDS011;25563;50.844;4.308;2022-12-18T09:53:56;16.10;;;11.73;;
39888;SDS011;25563;50.844;4.308;2022-12-18T09:56:27;18.70;;;13.68;;
39888;SDS011;25563;50.844;4.308;2022-12-18T09:59:00;24.27;;;14.35;;
39888;SDS011;25563;50.844;4.308;2022-12-18T10:01:31;15.57;;;11.35;;
39888;SDS011;25563;50.844;4.308;2022-12-18T10:03:57;24.00;;;12.55;;
39888;SDS011;25563;50.844;4.308;2022-12-18T10:09:43;16.15;;;11.95;;
39888;SDS011;25563;50.844;4.308;2022-12-18T10:12:32;16.92;;;12.98;;
39888;SDS011;25563;50.844;4.308;2022-12-18T10:16:07;18.08;;;13.05;;
39888;SDS011;25563;50.844;4.308;2022-12-18T10:18:11;18.60;;;12.77;;
39888;SDS011;25563;50.844;4.308;2022-12-18T10:20:43;16.52;;;11.93;;
39888;SDS011;25563;50.844;4.308;2022-12-18T10:26:03;15.45;;;12.45;;
39888;SDS011;25563;50.844;4.308;2022-12-18T10:28:32;17.70;;;12.00;;
39888;SDS011;25563;50.844;4.308;2022-12-18T10:31:07;23.45;;;12.60;;
39888;SDS011;25563;50.844;4.308;2022-12-18T10:33:42;15.40;;;12.35;;
39888;SDS011;25563;50.844;4.308;2022-12-18T10:36:08;17.40;;;12.80;;
39888;SDS011;25563;50.844;4.308;2022-12-18T10:38:34;16.45;;;12.60;;
39888;SDS011;25563;50.844;4.308;2022-12-18T10:41:08;26.52;;;15.57;;
39888;SDS011;25563;50.844;4.308;2022-12-18T10:44:34;16.42;;;12.40;;
39888;SDS011;25563;50.844;4.308;2022-12-18T10:46:43;20.77;;;12.98;;
39888;SDS011;25563;50.844;4.308;2022-12-18T10:49:24;27.42;;;16.42;;
39888;SDS011;25563;50.844;4.308;2022-12-18T10:51:52;28.98;;;15.40;;
39888;SDS011;25563;50.844;4.308;2022-12-18T10:54:45;27.85;;;15.57;;
39888;SDS011;25563;50.844;4.308;2022-12-18T10:57:16;24.98;;;15.88;;
39888;SDS011;25563;50.844;4.308;2022-12-18T10:59:53;20.13;;;14.32;;
39888;SDS011;25563;50.844;4.308;2022-12-18T11:02:27;21.98;;;14.75;;
39888;SDS011;25563;50.844;4.308;2022-12-18T11:05:02;29.60;;;15.95;;
39888;SDS011;25563;50.844;4.308;2022-12-18T11:07:47;33.58;;;17.63;;
39888;SDS011;25563;50.844;4.308;2022-12-18T11:10:18;29.92;;;16.60;;
39888;SDS011;25563;50.844;4.308;2022-12-18T11:12:44;30.13;;;16.60;;
39888;SDS011;25563;50.844;4.308;2022-12-18T11:15:21;98.35;;;45.22;;
39888;SDS011;25563;50.844;4.308;2022-12-18T11:17:52;34.38;;;17.95;;
39888;SDS011;25563;50.844;4.308;2022-12-18T11:23:03;62.95;;;30.23;;
39888;SDS011;25563;50.844;4.308;2022-12-18T11:25:39;22.10;;;15.57;;
39888;SDS011;25563;50.844;4.308;2022-12-18T11:28:24;25.00;;;14.88;;
39888;SDS011;25563;50.844;4.308;2022-12-18T11:31:34;27.55;;;15.68;;
39888;SDS011;25563;50.844;4.308;2022-12-18T11:33:56;30.23;;;16.92;;
39888;SDS011;25563;50.844;4.308;2022-12-18T11:36:41;26.02;;;14.32;;
39888;SDS011;25563;50.844;4.308;2022-12-18T11:39:12;23.70;;;12.93;;
39888;SDS011;25563;50.844;4.308;2022-12-18T11:42:03;18.85;;;13.38;;
39888;SDS011;25563;50.844;4.308;2022-12-18T11:50:03;21.20;;;13.52;;
39888;SDS011;25563;50.844;4.308;2022-12-18T11:52:39;20.35;;;13.52;;
39888;SDS011;25563;50.844;4.308;2022-12-18T11:55:13;19.33;;;12.75;;
39888;SDS011;25563;50.844;4.308;2022-12-18T12:00:27;19.63;;;13.55;;
39888;SDS011;25563;50.844;4.308;2022-12-18T12:05:57;26.23;;;13.90;;
39888;SDS011;25563;50.844;4.308;2022-12-18T12:08:33;25.98;;;13.00;;
39888;SDS011;25563;50.844;4.308;2022-12-18T12:11:32;22.48;;;12.43;;
39888;SDS011;25563;50.844;4.308;2022-12-18T12:20:20;20.48;;;13.30;;
39888;SDS011;25563;50.844;4.308;2022-12-18T12:25:18;23.42;;;15.15;;
39888;SDS011;25563;50.844;4.308;2022-12-18T12:28:25;25.02;;;15.02;;
39888;SDS011;25563;50.844;4.308;2022-12-18T12:37:05;28.80;;;13.57;;
39888;SDS011;25563;50.844;4.308;2022-12-18T12:39:40;29.63;;;13.88;;
39888;SDS011;25563;50.844;4.308;2022-12-18T12:42:12;31.88;;;14.52;;
39888;SDS011;25563;50.844;4.308;2022-12-18T12:45:28;31.73;;;15.75;;
39888;SDS011;25563;50.844;4.308;2022-12-18T12:48:23;22.35;;;14.25;;
39888;SDS011;25563;50.844;4.308;2022-12-18T12:51:01;20.67;;;14.73;;
39888;SDS011;25563;50.844;4.308;2022-12-18T12:53:48;25.92;;;17.08;;
39888;SDS011;25563;50.844;4.308;2022-12-18T12:56:15;35.13;;;17.42;;
39888;SDS011;25563;50.844;4.308;2022-12-18T13:01:26;29.67;;;15.40;;
39888;SDS011;25563;50.844;4.308;2022-12-18T13:04:03;38.08;;;17.23;;
39888;SDS011;25563;50.844;4.308;2022-12-18T13:09:24;32.65;;;16.75;;
39888;SDS011;25563;50.844;4.308;2022-12-18T13:11:49;33.70;;;18.15;;
39888;SDS011;25563;50.844;4.308;2022-12-18T13:14:35;39.45;;;20.30;;
39888;SDS011;25563;50.844;4.308;2022-12-18T13:17:16;33.75;;;19.42;;
39888;SDS011;25563;50.844;4.308;2022-12-18T13:19:45;35.47;;;19.15;;
39888;SDS011;25563;50.844;4.308;2022-12-18T13:22:34;36.85;;;19.30;;
39888;SDS011;25563;50.844;4.308;2022-12-18T13:25:44;32.53;;;17.73;;
39888;SDS011;25563;50.844;4.308;2022-12-18T13:30:41;42.40;;;19.23;;
39888;SDS011;25563;50.844;4.308;2022-12-18T13:35:40;46.25;;;24.10;;
39888;SDS011;25563;50.844;4.308;2022-12-18T13:38:22;40.35;;;22.52;;
39888;SDS011;25563;50.844;4.308;2022-12-18T13:41:01;32.95;;;18.50;;
39888;SDS011;25563;50.844;4.308;2022-12-18T13:43:42;37.53;;;19.83;;
39888;SDS011;25563;50.844;4.308;2022-12-18T13:46:19;52.92;;;23.35;;
39888;SDS011;25563;50.844;4.308;2022-12-18T13:48:50;41.20;;;21.27;;
39888;SDS011;25563;50.844;4.308;2022-12-18T13:51:25;42.92;;;23.38;;
39888;SDS011;25563;50.844;4.308;2022-12-18T13:54:00;43.72;;;22.13;;
39888;SDS011;25563;50.844;4.308;2022-12-18T13:56:47;50.30;;;23.52;;
39888;SDS011;25563;50.844;4.308;2022-12-18T14:04:21;45.45;;;24.80;;
39888;SDS011;25563;50.844;4.308;2022-12-18T14:06:53;44.78;;;22.88;;
39888;SDS011;25563;50.844;4.308;2022-12-18T14:09:44;39.67;;;20.83;;
39888;SDS011;25563;50.844;4.308;2022-12-18T14:12:33;37.80;;;20.77;;
39888;SDS011;25563;50.844;4.308;2022-12-18T14:17:52;48.55;;;22.35;;
39888;SDS011;25563;50.844;4.308;2022-12-18T14:20:26;40.90;;;20.80;;
39888;SDS011;25563;50.844;4.308;2022-12-18T14:22:53;40.38;;;20.30;;
39888;SDS011;25563;50.844;4.308;2022-12-18T14:25:23;39.15;;;21.98;;
39888;SDS011;25563;50.844;4.308;2022-12-18T14:30:37;39.85;;;21.67;;
39888;SDS011;25563;50.844;4.308;2022-12-18T14:33:21;38.67;;;20.58;;
39888;SDS011;25563;50.844;4.308;2022-12-18T14:35:52;41.92;;;21.05;;
39888;SDS011;25563;50.844;4.308;2022-12-18T14:41:14;44.97;;;22.77;;
39888;SDS011;25563;50.844;4.308;2022-12-18T14:43:41;41.25;;;21.65;;
39888;SDS011;25563;50.844;4.308;2022-12-18T14:46:28;41.20;;;22.33;;
39888;SDS011;25563;50.844;4.308;2022-12-18T14:48:55;36.40;;;20.88;;
39888;SDS011;25563;50.844;4.308;2022-12-18T14:51:25;41.17;;;21.27;;
39888;SDS011;25563;50.844;4.308;2022-12-18T14:56:45;58.50;;;24.67;;
39888;SDS011;25563;50.844;4.308;2022-12-18T14:59:14;44.08;;;22.75;;
39888;SDS011;25563;50.844;4.308;2022-12-18T15:01:45;47.33;;;22.58;;
39888;SDS011;25563;50.844;4.308;2022-12-18T15:04:27;62.10;;;28.23;;
39888;SDS011;25563;50.844;4.308;2022-12-18T15:07:10;67.22;;;29.73;;
39888;SDS011;25563;50.844;4.308;2022-12-18T15:09:46;57.88;;;25.77;;
39888;SDS011;25563;50.844;4.308;2022-12-18T15:12:40;49.03;;;24.25;;
39888;SDS011;25563;50.844;4.308;2022-12-18T15:18:10;48.92;;;24.55;;
39888;SDS011;25563;50.844;4.308;2022-12-18T15:20:40;54.75;;;25.02;;
39888;SDS011;25563;50.844;4.308;2022-12-18T15:23:17;50.42;;;23.73;;
39888;SDS011;25563;50.844;4.308;2022-12-18T15:25:49;45.38;;;22.38;;
39888;SDS011;25563;50.844;4.308;2022-12-18T15:28:30;49.67;;;23.13;;
39888;SDS011;25563;50.844;4.308;2022-12-18T15:31:33;50.40;;;22.77;;
39888;SDS011;25563;50.844;4.308;2022-12-18T15:36:32;55.20;;;25.13;;
39888;SDS011;25563;50.844;4.308;2022-12-18T15:39:01;44.80;;;22.48;;
39888;SDS011;25563;50.844;4.308;2022-12-18T15:41:30;45.55;;;22.25;;
39888;SDS011;25563;50.844;4.308;2022-12-18T15:44:01;49.47;;;23.90;;
39888;SDS011;25563;50.844;4.308;2022-12-18T15:46:42;45.45;;;22.98;;
39888;SDS011;25563;50.844;4.308;2022-12-18T15:49:09;47.35;;;22.13;;
39888;SDS011;25563;50.844;4.308;2022-12-18T15:51:35;44.33;;;21.73;;
39888;SDS011;25563;50.844;4.308;2022-12-18T15:54:02;46.65;;;22.63;;
39888;SDS011;25563;50.844;4.308;2022-12-18T15:56:31;50.13;;;22.85;;
39888;SDS011;25563;50.844;4.308;2022-12-18T15:59:16;50.00;;;23.63;;
39888;SDS011;25563;50.844;4.308;2022-12-18T16:01:44;57.78;;;23.73;;
39888;SDS011;25563;50.844;4.308;2022-12-18T16:04:12;54.10;;;26.63;;
39888;SDS011;25563;50.844;4.308;2022-12-18T16:06:41;53.03;;;23.52;;
39888;SDS011;25563;50.844;4.308;2022-12-18T16:09:07;47.65;;;24.58;;
39888;SDS011;25563;50.844;4.308;2022-12-18T16:11:33;48.05;;;24.63;;
39888;SDS011;25563;50.844;4.308;2022-12-18T16:16:53;44.10;;;23.88;;
39888;SDS011;25563;50.844;4.308;2022-12-18T16:19:24;50.45;;;23.92;;
39888;SDS011;25563;50.844;4.308;2022-12-18T16:21:51;49.17;;;24.73;;
39888;SDS011;25563;50.844;4.308;2022-12-18T16:24:20;52.78;;;23.48;;
39888;SDS011;25563;50.844;4.308;2022-12-18T16:26:50;52.00;;;24.38;;
39888;SDS011;25563;50.844;4.308;2022-12-18T16:29:17;51.15;;;23.80;;
39888;SDS011;25563;50.844;4.308;2022-12-18T16:31:44;48.50;;;22.58;;
39888;SDS011;25563;50.844;4.308;2022-12-18T16:34:10;50.78;;;23.83;;
39888;SDS011;25563;50.844;4.308;2022-12-18T16:36:56;47.83;;;23.70;;